createdAt,value
2019-04-01T00:01:26.833Z,4.15
2019-04-01T00:03:56.342Z,1.45
2019-04-01T00:06:26.108Z,2.25
2019-04-01T00:08:55.625Z,1.82
2019-04-01T00:11:25.121Z,1.20
2019-04-01T00:13:54.685Z,1.22
2019-04-01T00:16:24.280Z,2.33
2019-04-01T00:19:02.882Z,1.32
2019-04-01T00:21:24.985Z,1.85
2019-04-01T00:23:54.452Z,1.85
2019-04-01T00:26:24.046Z,2.10
2019-04-01T00:28:53.973Z,2.05
2019-04-01T00:31:23.472Z,1.47
2019-04-01T00:33:53.003Z,1.50
2019-04-01T00:36:22.566Z,1.65
2019-04-01T00:38:52.006Z,1.70
2019-04-01T00:41:21.506Z,1.45
2019-04-01T00:44:09.702Z,1.67
2019-04-01T00:46:39.244Z,1.95
2019-04-01T00:49:08.741Z,1.95
2019-04-01T00:51:38.276Z,4.60
2019-04-01T00:54:07.772Z,3.10
2019-04-01T00:56:37.481Z,1.70
2019-04-01T00:59:07.033Z,1.30
2019-04-01T01:01:36.621Z,2.02
2019-04-01T01:04:06.447Z,1.77
2019-04-01T01:06:35.928Z,2.95
2019-04-01T01:09:06.492Z,1.62
2019-04-01T01:11:36.054Z,1.40
2019-04-01T01:14:05.631Z,1.72
2019-04-01T01:16:35.166Z,1.55
2019-04-01T01:19:04.670Z,1.80
2019-04-01T01:21:35.731Z,4.15
2019-04-01T01:24:05.221Z,2.10
2019-04-01T01:26:34.740Z,2.22
2019-04-01T01:29:04.231Z,2.15
2019-04-01T01:31:33.769Z,1.98
2019-04-01T01:34:03.246Z,1.98
2019-04-01T01:36:32.736Z,1.45
2019-04-01T01:39:02.316Z,1.75
2019-04-01T01:41:31.804Z,2.65
2019-04-01T01:44:01.377Z,1.80
2019-04-01T01:46:30.930Z,1.65
2019-04-01T01:49:00.553Z,2.52
2019-04-01T01:51:30.077Z,1.60
2019-04-01T01:53:59.580Z,1.90
2019-04-01T01:56:29.091Z,2.30
2019-04-01T01:58:58.556Z,1.65
2019-04-01T02:01:28.098Z,2.27
2019-04-01T02:03:57.551Z,1.65
2019-04-01T02:06:27.035Z,2.98
2019-04-01T02:08:56.536Z,1.62
2019-04-01T02:11:26.147Z,2.58
2019-04-01T02:13:55.641Z,2.90
2019-04-01T02:16:25.186Z,1.32
2019-04-01T02:18:54.667Z,1.77
2019-04-01T02:21:24.180Z,1.90
2019-04-01T02:23:53.896Z,2.75
2019-04-01T02:26:23.373Z,1.50
2019-04-01T02:28:52.887Z,2.47
2019-04-01T02:31:22.416Z,2.22
2019-04-01T02:33:51.928Z,1.85
2019-04-01T02:36:21.510Z,1.40
2019-04-01T02:38:51.009Z,2.60
2019-04-01T02:41:20.592Z,2.58
2019-04-01T02:43:50.155Z,2.52
2019-04-01T02:46:19.672Z,2.52
2019-04-01T02:48:49.190Z,2.60
2019-04-01T02:51:18.805Z,1.80
2019-04-01T02:53:48.489Z,1.42
2019-04-01T02:56:18.024Z,1.80
2019-04-01T02:58:47.583Z,1.45
2019-04-01T03:01:17.118Z,1.35
2019-04-01T03:03:46.641Z,1.70
2019-04-01T03:06:16.170Z,1.98
2019-04-01T03:08:45.684Z,1.42
2019-04-01T03:11:15.382Z,1.60
2019-04-01T03:13:44.857Z,1.52
2019-04-01T03:16:14.320Z,0.90
2019-04-01T03:18:43.824Z,2.20
2019-04-01T03:21:13.300Z,2.95
2019-04-01T03:23:44.309Z,1.95
2019-04-01T03:26:13.770Z,2.22
2019-04-01T03:28:43.241Z,2.25
2019-04-01T03:31:12.811Z,3.30
2019-04-01T03:33:42.346Z,1.40
2019-04-01T03:36:11.896Z,1.95
2019-04-01T03:38:41.447Z,1.95
2019-04-01T03:41:10.925Z,2.20
2019-04-01T03:43:40.460Z,2.50
2019-04-01T03:46:09.991Z,1.47
2019-04-01T03:48:39.490Z,2.35
2019-04-01T03:51:08.992Z,1.90
2019-04-01T03:53:38.508Z,3.62
2019-04-01T03:56:07.930Z,3.62
2019-04-01T03:58:37.455Z,2.25
2019-04-01T04:01:06.976Z,2.40
2019-04-01T04:03:36.411Z,2.58
2019-04-01T04:06:06.034Z,2.60
2019-04-01T04:08:35.459Z,1.72
2019-04-01T04:11:04.968Z,2.25
2019-04-01T04:13:34.459Z,2.80
2019-04-01T04:16:04.138Z,2.35
2019-04-01T04:18:33.706Z,1.80
2019-04-01T04:21:03.275Z,1.47
2019-04-01T04:23:32.732Z,1.30
2019-04-01T04:26:02.224Z,1.82
2019-04-01T04:28:31.707Z,2.05
2019-04-01T04:31:01.648Z,2.42
2019-04-01T04:33:31.129Z,4.92
2019-04-01T04:36:00.636Z,1.70
2019-04-01T04:38:30.150Z,2.15
2019-04-01T04:40:59.699Z,2.02
2019-04-01T04:43:29.120Z,2.27
2019-04-01T04:45:58.677Z,1.90
2019-04-01T04:48:28.242Z,3.00
2019-04-01T04:50:57.782Z,1.82
2019-04-01T04:53:27.254Z,1.90
2019-04-01T04:55:56.720Z,1.75
2019-04-01T04:58:26.181Z,2.45
2019-04-01T05:00:55.637Z,3.80
2019-04-01T05:03:25.162Z,3.17
2019-04-01T05:05:54.835Z,2.98
2019-04-01T05:08:24.369Z,3.65
2019-04-01T05:10:53.968Z,3.12
2019-04-01T05:13:23.532Z,2.92
2019-04-01T05:15:53.054Z,2.85
2019-04-01T05:18:22.574Z,1.60
2019-04-01T05:20:52.551Z,1.98
2019-04-01T05:23:22.766Z,2.22
2019-04-01T05:25:52.868Z,1.67
2019-04-01T05:28:23.320Z,3.08
2019-04-01T05:30:54.046Z,3.30
2019-04-01T05:33:23.660Z,3.10
2019-04-01T05:35:53.123Z,2.40
2019-04-01T05:38:22.871Z,2.45
2019-04-01T05:40:52.343Z,2.33
2019-04-01T05:43:23.860Z,2.12
2019-04-01T05:45:53.914Z,1.50
2019-04-01T05:48:25.530Z,1.82
2019-04-01T05:50:55.379Z,2.10
2019-04-01T05:53:24.893Z,3.45
2019-04-01T05:55:54.354Z,1.80
2019-04-01T05:58:23.923Z,4.85
2019-04-01T06:01:01.629Z,2.25
2019-04-01T06:03:31.135Z,1.50
2019-04-01T06:06:00.617Z,2.02
2019-04-01T06:08:31.121Z,1.80
2019-04-01T06:11:01.571Z,2.25
2019-04-01T06:13:31.215Z,2.30
2019-04-01T06:16:00.998Z,1.22
2019-04-01T06:18:30.574Z,1.92
2019-04-01T06:21:00.925Z,1.60
2019-04-01T06:23:30.503Z,1.37
2019-04-01T06:26:00.037Z,2.05
2019-04-01T06:28:29.586Z,2.40
2019-04-01T06:30:59.397Z,1.90
2019-04-01T06:33:29.312Z,1.75
2019-04-01T06:35:59.034Z,1.50
2019-04-01T06:38:28.702Z,2.55
2019-04-01T06:40:58.573Z,2.12
2019-04-01T06:43:28.259Z,1.57
2019-04-01T06:45:57.998Z,2.72
2019-04-01T06:48:28.098Z,2.17
2019-04-01T06:50:57.679Z,2.00
2019-04-01T06:53:29.128Z,2.10
2019-04-01T06:55:58.620Z,2.42
2019-04-01T07:01:33.278Z,1.87
2019-04-01T07:04:07.940Z,1.55
2019-04-01T07:06:49.234Z,1.77
2019-04-01T07:09:52.643Z,1.90
2019-04-01T07:12:28.616Z,1.87
2019-04-01T07:15:21.476Z,2.12
2019-04-01T07:18:53.419Z,2.90
2019-04-01T07:21:30.665Z,1.87
2019-04-01T07:24:00.100Z,2.40
2019-04-01T07:26:29.687Z,1.77
2019-04-01T07:28:59.243Z,1.72
2019-04-01T07:31:29.734Z,5.37
2019-04-01T07:33:59.290Z,2.00
2019-04-01T07:36:28.871Z,1.62
2019-04-01T07:38:58.375Z,1.72
2019-04-01T07:41:29.345Z,1.90
2019-04-01T07:43:58.891Z,1.55
2019-04-01T07:46:28.440Z,2.00
2019-04-01T07:48:58.310Z,2.58
2019-04-01T07:51:27.925Z,2.25
2019-04-01T07:53:57.423Z,1.98
2019-04-01T07:56:26.987Z,2.62
2019-04-01T07:58:56.551Z,2.30
2019-04-01T08:01:26.056Z,2.15
2019-04-01T08:03:55.538Z,2.55
2019-04-01T08:06:25.343Z,2.58
2019-04-01T08:08:55.556Z,2.40
2019-04-01T08:11:27.106Z,2.83
2019-04-01T08:14:01.382Z,2.80
2019-04-01T08:16:31.193Z,1.80
2019-04-01T08:19:01.169Z,3.00
2019-04-01T08:21:30.760Z,2.55
2019-04-01T08:24:00.300Z,2.37
2019-04-01T08:26:29.782Z,2.05
2019-04-01T08:28:59.369Z,2.72
2019-04-01T08:31:28.848Z,1.92
2019-04-01T08:33:58.413Z,1.95
2019-04-01T08:36:27.981Z,3.00
2019-04-01T08:38:57.541Z,2.52
2019-04-01T08:41:27.073Z,2.08
2019-04-01T08:43:56.552Z,3.65
2019-04-01T08:46:26.251Z,2.62
2019-04-01T08:48:56.546Z,2.45
2019-04-01T08:51:25.999Z,2.15
2019-04-01T08:53:56.596Z,2.45
2019-04-01T08:56:26.146Z,2.20
2019-04-01T08:58:56.234Z,2.55
2019-04-01T09:01:35.007Z,1.57
2019-04-01T09:03:59.932Z,1.75
2019-04-01T09:06:31.300Z,2.52
2019-04-01T09:09:01.348Z,2.90
2019-04-01T09:11:31.086Z,2.52
2019-04-01T09:14:02.019Z,2.52
2019-04-01T09:16:32.154Z,2.17
2019-04-01T09:19:01.754Z,2.80
2019-04-01T09:21:31.287Z,2.58
2019-04-01T09:24:00.857Z,2.85
2019-04-01T09:26:30.313Z,2.40
2019-04-01T09:28:59.780Z,2.52
2019-04-01T09:31:29.287Z,1.85
2019-04-01T09:33:58.750Z,2.15
2019-04-01T09:36:28.225Z,2.52
2019-04-01T09:38:57.765Z,2.20
2019-04-01T09:41:27.270Z,2.98
2019-04-01T09:43:56.883Z,2.75
2019-04-01T09:46:26.337Z,2.00
2019-04-01T09:48:55.856Z,1.95
2019-04-01T09:51:25.339Z,3.02
2019-04-01T09:53:54.887Z,1.90
2019-04-01T09:56:24.363Z,2.05
2019-04-01T09:58:53.843Z,2.15
2019-04-01T10:01:23.378Z,2.60
2019-04-01T10:03:52.929Z,1.95
2019-04-01T10:06:22.490Z,2.00
2019-04-01T10:08:52.088Z,2.50
2019-04-01T10:11:21.664Z,2.42
2019-04-01T10:13:51.202Z,1.80
2019-04-01T10:16:20.738Z,1.92
2019-04-01T10:18:50.274Z,2.35
2019-04-01T10:21:19.842Z,2.85
2019-04-01T10:23:49.402Z,3.15
2019-04-01T10:26:18.891Z,2.33
2019-04-01T10:28:48.455Z,2.77
2019-04-01T10:31:17.980Z,2.67
2019-04-01T10:33:47.898Z,1.70
2019-04-01T10:36:17.420Z,2.60
2019-04-01T10:38:47.148Z,2.70
2019-04-01T10:41:16.853Z,2.65
2019-04-01T10:43:47.753Z,2.33
2019-04-01T10:46:17.257Z,2.42
2019-04-01T10:48:46.771Z,2.33
2019-04-01T10:51:16.397Z,2.27
2019-04-01T10:53:45.948Z,3.35
2019-04-01T10:56:15.555Z,2.30
2019-04-01T10:58:45.202Z,2.87
2019-04-01T11:01:16.683Z,2.30
2019-04-01T11:03:46.360Z,3.08
2019-04-01T11:06:16.067Z,2.47
2019-04-01T11:08:45.826Z,3.05
2019-04-01T11:11:15.381Z,2.12
2019-04-01T11:13:45.595Z,2.12
2019-04-01T11:16:15.083Z,3.47
2019-04-01T11:18:44.611Z,3.40
2019-04-01T11:21:16.826Z,3.47
2019-04-01T11:23:46.432Z,2.87
2019-04-01T11:26:36.692Z,2.35
2019-04-01T11:29:06.277Z,2.50
2019-04-01T11:31:35.789Z,2.72
2019-04-01T11:34:05.287Z,2.90
2019-04-01T11:36:34.714Z,1.85
2019-04-01T11:39:06.503Z,2.35
2019-04-01T11:41:36.392Z,2.47
2019-04-01T11:44:05.959Z,3.00
2019-04-01T11:46:35.519Z,2.80
2019-04-01T11:49:05.408Z,2.33
2019-04-01T11:51:39.822Z,2.15
2019-04-01T11:54:08.162Z,3.42
2019-04-01T11:56:37.338Z,2.47
2019-04-01T11:59:08.311Z,2.87
2019-04-01T12:01:38.185Z,2.67
2019-04-01T12:04:07.822Z,2.67
2019-04-01T12:06:37.390Z,2.87
2019-04-01T12:09:07.978Z,2.37
2019-04-01T12:11:37.464Z,2.80
2019-04-01T12:14:07.093Z,5.25
2019-04-01T12:16:36.614Z,2.52
2019-04-01T12:19:06.164Z,3.00
2019-04-01T12:21:35.646Z,2.92
2019-04-01T12:24:05.117Z,3.02
2019-04-01T12:26:34.609Z,2.47
2019-04-01T12:29:04.151Z,3.17
2019-04-01T12:31:33.824Z,2.25
2019-04-01T12:34:03.320Z,3.25
2019-04-01T12:36:32.808Z,3.02
2019-04-01T12:39:02.279Z,2.83
2019-04-01T12:41:31.739Z,3.58
2019-04-01T12:44:01.251Z,4.72
2019-04-01T12:46:30.741Z,3.20
2019-04-01T12:49:00.430Z,3.12
2019-04-01T12:51:30.050Z,3.67
2019-04-01T12:53:59.726Z,2.55
2019-04-01T12:56:29.223Z,2.98
2019-04-01T12:58:58.730Z,3.30
2019-04-01T13:01:28.205Z,2.95
2019-04-01T13:03:58.292Z,3.50
2019-04-01T13:06:27.754Z,4.15
2019-04-01T13:08:57.725Z,3.40
2019-04-01T13:11:27.221Z,3.40
2019-04-01T13:13:56.826Z,3.62
2019-04-01T13:16:26.459Z,5.12
2019-04-01T13:18:55.984Z,4.83
2019-04-01T13:21:25.768Z,3.60
2019-04-01T13:23:55.315Z,3.20
2019-04-01T13:26:24.887Z,3.95
2019-04-01T13:30:07.159Z,4.30
2019-04-01T13:32:36.631Z,3.72
2019-04-01T13:35:09.552Z,3.17
2019-04-01T13:37:38.676Z,3.52
2019-04-01T13:40:08.375Z,4.35
2019-04-01T13:42:37.968Z,3.47
2019-04-01T13:45:07.738Z,4.20
2019-04-01T13:47:40.855Z,4.00
2019-04-01T13:50:08.532Z,3.72
2019-04-01T13:52:38.108Z,3.85
2019-04-01T13:55:09.915Z,3.10
2019-04-01T13:57:39.471Z,3.57
2019-04-01T14:00:09.764Z,3.98
2019-04-01T14:02:39.281Z,3.30
2019-04-01T14:05:09.109Z,4.33
2019-04-01T14:07:39.689Z,3.00
2019-04-01T14:10:09.472Z,3.87
2019-04-01T14:12:38.950Z,4.47
2019-04-01T14:15:09.923Z,3.05
2019-04-01T14:17:39.425Z,3.45
2019-04-01T14:20:08.968Z,2.92
2019-04-01T14:22:38.493Z,3.10
2019-04-01T14:25:08.392Z,3.95
2019-04-01T14:27:39.290Z,4.47
2019-04-01T14:30:09.198Z,3.00
2019-04-01T14:32:38.943Z,3.52
2019-04-01T14:35:08.732Z,3.15
2019-04-01T14:37:39.745Z,3.40
2019-04-01T14:40:09.960Z,4.55
2019-04-01T14:42:39.850Z,2.95
2019-04-01T14:45:10.479Z,3.27
2019-04-01T14:47:55.862Z,3.55
2019-04-01T14:50:11.937Z,3.47
2019-04-01T14:52:41.820Z,3.52
2019-04-01T14:55:11.454Z,3.65
2019-04-01T14:57:40.925Z,3.90
2019-04-01T15:00:14.251Z,3.50
2019-04-01T15:02:43.754Z,3.05
2019-04-01T15:05:14.780Z,3.12
2019-04-01T15:07:44.276Z,3.83
2019-04-01T15:10:15.192Z,3.00
2019-04-01T15:12:45.259Z,3.10
2019-04-01T15:15:14.939Z,3.45
2019-04-01T15:17:44.461Z,3.37
2019-04-01T15:20:14.618Z,4.00
2019-04-01T15:22:44.210Z,4.20
2019-04-01T15:25:14.319Z,3.95
2019-04-01T15:27:43.820Z,4.53
2019-04-01T15:30:14.328Z,3.60
2019-04-01T15:32:44.133Z,3.80
2019-04-01T15:35:13.810Z,3.53
2019-04-01T15:37:44.190Z,3.70
2019-04-01T15:40:16.171Z,3.57
2019-04-01T15:42:45.748Z,3.27
2019-04-01T15:45:15.345Z,2.77
2019-04-01T15:47:48.473Z,3.90
2019-04-01T15:50:28.201Z,3.40
2019-04-01T15:52:49.189Z,3.10
2019-04-01T15:55:18.668Z,3.15
2019-04-01T15:57:48.505Z,3.50
2019-04-01T16:00:19.691Z,3.45
2019-04-01T16:02:49.335Z,2.72
2019-04-01T16:05:18.983Z,3.70
2019-04-01T16:07:48.620Z,3.30
2019-04-01T16:10:18.262Z,3.55
2019-04-01T16:12:47.815Z,3.22
2019-04-01T16:15:17.599Z,4.28
2019-04-01T16:17:47.102Z,4.10
2019-04-01T16:20:16.750Z,2.98
2019-04-01T16:22:46.336Z,3.17
2019-04-01T16:25:15.944Z,3.60
2019-04-01T16:27:45.683Z,3.00
2019-04-01T16:30:15.510Z,3.45
2019-04-01T16:32:45.094Z,3.95
2019-04-01T16:35:16.129Z,4.15
2019-04-01T16:37:45.633Z,4.50
2019-04-01T16:40:15.773Z,2.50
2019-04-01T16:42:45.596Z,2.92
2019-04-01T16:45:15.128Z,3.72
2019-04-01T16:47:48.658Z,3.72
2019-04-01T16:50:18.519Z,3.60
2019-04-01T16:52:48.012Z,2.95
2019-04-01T16:55:18.415Z,3.67
2019-04-01T16:57:49.621Z,4.50
2019-04-01T17:00:19.628Z,4.10
2019-04-01T17:02:50.031Z,3.10
2019-04-01T17:05:24.289Z,3.63
2019-04-01T17:07:53.726Z,3.30
2019-04-01T17:10:24.012Z,3.75
2019-04-01T17:12:53.528Z,3.77
2019-04-01T17:15:23.200Z,3.02
2019-04-01T17:17:53.691Z,3.47
2019-04-01T17:20:24.007Z,3.00
2019-04-01T17:22:53.781Z,4.37
2019-04-01T17:25:23.409Z,3.37
2019-04-01T17:27:52.951Z,4.35
2019-04-01T17:30:22.868Z,3.80
2019-04-01T17:32:52.402Z,3.70
2019-04-01T17:35:21.877Z,2.80
2019-04-01T17:37:51.508Z,2.77
2019-04-01T17:40:23.253Z,3.92
2019-04-01T17:42:52.779Z,3.35
2019-04-01T17:45:34.942Z,2.75
2019-04-01T17:48:05.158Z,3.22
2019-04-01T17:50:36.383Z,3.20
2019-04-01T17:53:07.872Z,2.47
2019-04-01T17:55:37.522Z,3.47
2019-04-01T17:58:08.013Z,3.87
2019-04-01T18:00:41.947Z,2.98
2019-04-01T18:03:11.905Z,3.72
2019-04-01T18:05:41.561Z,3.08
2019-04-01T18:08:11.129Z,3.50
2019-04-01T18:10:40.677Z,2.75
2019-04-01T18:13:10.223Z,2.80
2019-04-01T18:15:39.773Z,2.98
2019-04-01T18:18:10.235Z,2.90
2019-04-01T18:20:40.094Z,3.80
2019-04-01T18:23:09.547Z,3.60
2019-04-01T18:25:40.154Z,3.62
2019-04-01T18:28:09.790Z,3.50
2019-04-01T18:30:39.405Z,5.05
2019-04-01T18:33:08.919Z,4.10
2019-04-01T18:35:39.256Z,4.15
2019-04-01T18:38:08.818Z,3.83
2019-04-01T18:40:38.466Z,3.65
2019-04-01T18:43:08.149Z,4.30
2019-04-01T18:45:37.679Z,3.33
2019-04-01T18:48:07.309Z,3.00
2019-04-01T18:50:36.893Z,2.90
2019-04-01T18:53:07.319Z,2.90
2019-04-01T18:55:37.278Z,3.02
2019-04-01T18:58:07.244Z,3.62
2019-04-01T19:00:36.751Z,4.22
2019-04-01T19:03:06.316Z,3.65
2019-04-01T19:05:35.864Z,3.30
2019-04-01T19:08:05.644Z,5.45
2019-04-01T19:10:35.584Z,3.80
2019-04-01T19:13:07.534Z,3.60
2019-04-01T19:15:37.478Z,3.98
2019-04-01T19:18:08.022Z,5.25
2019-04-01T19:20:37.766Z,4.92
2019-04-01T19:23:07.386Z,2.85
2019-04-01T19:25:37.026Z,3.98
2019-04-01T19:28:06.690Z,4.05
2019-04-01T19:30:36.946Z,4.50
2019-04-01T19:33:07.077Z,4.10
2019-04-01T19:35:37.880Z,4.33
2019-04-01T19:38:07.564Z,3.25
2019-04-01T19:40:37.600Z,3.90
2019-04-01T19:43:07.246Z,3.55
2019-04-01T19:45:37.352Z,3.70
2019-04-01T19:48:07.028Z,3.42
2019-04-01T19:51:23.106Z,4.85
2019-04-01T19:53:53.269Z,4.35
2019-04-01T19:56:23.366Z,4.20
2019-04-01T19:58:55.925Z,3.80
2019-04-01T20:01:26.110Z,3.00
2019-04-01T20:03:55.684Z,3.60
2019-04-01T20:06:25.259Z,4.20
2019-04-01T20:08:54.829Z,4.03
2019-04-01T20:14:25.115Z,4.08
2019-04-01T20:16:56.917Z,4.80
2019-04-01T20:19:28.420Z,4.35
2019-04-01T20:21:59.695Z,4.33
2019-04-01T20:24:29.267Z,7.10
2019-04-01T20:26:58.803Z,5.22
2019-04-01T20:29:30.303Z,5.00
2019-04-01T20:31:59.802Z,4.30
2019-04-01T20:34:32.063Z,4.35
2019-04-01T20:37:01.148Z,4.42
2019-04-01T20:39:30.753Z,4.80
2019-04-01T20:42:00.206Z,3.70
2019-04-01T20:44:29.740Z,4.28
2019-04-01T20:46:59.409Z,6.58
2019-04-01T20:49:29.372Z,4.12
2019-04-01T20:51:59.897Z,4.67
2019-04-01T20:54:29.479Z,4.15
2019-04-01T20:56:59.137Z,5.03
2019-04-01T20:59:28.711Z,4.50
2019-04-01T21:01:58.202Z,4.70
2019-04-01T21:04:27.826Z,5.40
2019-04-01T21:06:57.257Z,4.67
2019-04-01T21:09:26.746Z,5.72
2019-04-01T21:11:56.311Z,5.67
2019-04-01T21:14:25.843Z,5.90
2019-04-01T21:16:56.005Z,5.70
2019-04-01T21:19:25.983Z,5.67
2019-04-01T21:21:55.448Z,5.05
2019-04-01T21:24:25.225Z,5.42
2019-04-01T21:26:55.104Z,5.03
2019-04-01T21:29:25.404Z,5.92
2019-04-01T21:31:54.872Z,4.70
2019-04-01T21:34:24.469Z,5.50
2019-04-01T21:36:53.986Z,4.78
2019-04-01T21:39:23.504Z,4.60
2019-04-01T21:41:53.906Z,4.85
2019-04-01T21:44:23.602Z,5.33
2019-04-01T21:46:53.067Z,5.15
2019-04-01T21:49:22.533Z,4.03
2019-04-01T21:51:52.030Z,5.70
2019-04-01T21:54:21.537Z,5.28
2019-04-01T21:56:51.931Z,5.70
2019-04-01T21:59:21.551Z,5.17
2019-04-01T22:01:51.053Z,6.20
2019-04-01T22:04:20.531Z,5.45
2019-04-01T22:06:50.081Z,5.22
2019-04-01T22:09:20.452Z,4.30
2019-04-01T22:11:49.891Z,5.10
2019-04-01T22:14:19.412Z,6.50
2019-04-01T22:16:48.896Z,5.28
2019-04-01T22:19:19.075Z,4.90
2019-04-01T22:21:48.580Z,5.58
2019-04-01T22:24:19.255Z,5.87
2019-04-01T22:26:48.728Z,5.00
2019-04-01T22:29:18.130Z,5.22
2019-04-01T22:31:47.558Z,4.72
2019-04-01T22:34:17.192Z,5.40
2019-04-01T22:36:46.696Z,5.42
2019-04-01T22:39:26.696Z,4.70
2019-04-01T22:41:47.218Z,5.05
2019-04-01T22:44:16.789Z,5.28
2019-04-01T22:46:47.391Z,5.72
2019-04-01T22:49:16.939Z,5.37
2019-04-01T22:51:46.397Z,6.17
2019-04-01T22:54:16.041Z,5.15
2019-04-01T22:56:45.464Z,5.70
2019-04-01T22:59:14.951Z,5.53
2019-04-01T23:01:45.040Z,4.90
2019-04-01T23:04:14.543Z,7.17
2019-04-01T23:06:44.089Z,6.62
2019-04-01T23:09:13.842Z,5.58
2019-04-01T23:11:43.452Z,5.85
2019-04-01T23:14:12.994Z,5.67
2019-04-01T23:16:42.497Z,6.55
2019-04-01T23:19:12.003Z,6.00
2019-04-01T23:21:41.692Z,6.30
2019-04-01T23:24:11.112Z,7.60
2019-04-01T23:26:40.760Z,5.87
2019-04-01T23:29:10.238Z,5.80
2019-04-01T23:31:39.676Z,6.28
2019-04-01T23:34:09.208Z,5.33
2019-04-01T23:36:38.668Z,6.05
2019-04-01T23:39:08.714Z,6.85
2019-04-01T23:41:38.136Z,7.15
2019-04-01T23:44:07.666Z,6.37
2019-04-01T23:46:37.051Z,6.80
2019-04-01T23:49:06.517Z,6.65
2019-04-01T23:51:36.200Z,6.20
2019-04-01T23:54:06.167Z,5.25
2019-04-01T23:56:35.678Z,5.50
2019-04-01T23:59:05.212Z,5.45
